Bypro, Kentucky
Current Conditions -  °F | °C
As of 3:35 PM on Wednesday 26 Nov 2014 (Local Time) from KPBX Reporting Station
Scattered Clouds Scattered Clouds  
Wind Chill: 46°   Ceiling: Unl
Heat Index: 46°   Visibility: 10mi
Dew Point: 31°   Wind: 3mph
Humidity: 57%   Direction: 240°WSW
Pressure: 29.98"   Gusts: NA
Location:  37.36°N, 82.69°W
Report Text: KPBX 262035Z AUTO 24003KT 10SM SCT036 08/00 A2998 RMK AO2 T00761004
Loading
Personal Weather Stations






























Interactive Weather Map New forecast layout! Learn more

10-Day Weather Forecast

Advertisements
Track Severe Weather on mobile